createdAt,value
2018-01-12T00:00:31.518Z,0
2018-01-12T00:01:40.971Z,0
2018-01-12T00:02:50.959Z,0
2018-01-12T00:04:00.676Z,0
2018-01-12T00:05:10.667Z,0
2018-01-12T00:06:20.388Z,0
2018-01-12T00:07:30.370Z,0
2018-01-12T00:08:39.820Z,0
2018-01-12T00:09:49.805Z,0
2018-01-12T00:10:59.799Z,0
2018-01-12T00:12:09.515Z,0
2018-01-12T00:13:19.494Z,0
2018-01-12T00:14:29.310Z,0
2018-01-12T00:15:39.296Z,0
2018-01-12T00:16:49.016Z,0
2018-01-12T00:17:58.730Z,0
2018-01-12T00:19:08.709Z,0
2018-01-12T00:20:18.698Z,0
2018-01-12T00:21:28.410Z,0
2018-01-12T00:22:37.594Z,0
2018-01-12T00:23:47.577Z,0
2018-01-12T00:24:57.556Z,0
2018-01-12T00:26:07.275Z,0
2018-01-12T00:27:16.992Z,0
2018-01-12T00:28:26.982Z,0
2018-01-12T00:29:36.965Z,0
2018-01-12T00:30:46.415Z,0
2018-01-12T00:31:56.451Z,0
2018-01-12T00:33:06.174Z,0
2018-01-12T00:34:15.891Z,0
2018-01-12T00:35:25.614Z,0
2018-01-12T00:36:35.331Z,0
2018-01-12T00:37:45.320Z,0
2018-01-12T00:38:55.301Z,0
2018-01-12T00:40:05.019Z,0
2018-01-12T00:41:15.001Z,0
2018-01-12T00:42:24.983Z,0
2018-01-12T00:43:34.698Z,0
2018-01-12T00:44:44.414Z,0
2018-01-12T00:45:54.127Z,0
2018-01-12T00:47:03.577Z,0
2018-01-12T00:48:13.294Z,0
2018-01-12T00:49:23.330Z,0
2018-01-12T00:50:33.312Z,0
2018-01-12T00:51:43.027Z,0
2018-01-12T00:52:52.477Z,0
2018-01-12T00:54:02.467Z,0
2018-01-12T00:55:12.184Z,0
2018-01-12T00:56:22.164Z,0
2018-01-12T00:57:31.616Z,0
2018-01-12T00:58:41.599Z,0
2018-01-12T00:59:51.053Z,0
2018-01-12T01:01:01.029Z,0
2018-01-12T01:02:10.747Z,0
2018-01-12T01:03:20.464Z,0
2018-01-12T01:04:30.514Z,0
2018-01-12T01:05:40.229Z,0
2018-01-12T01:06:49.942Z,0
2018-01-12T01:07:59.664Z,0
2018-01-12T01:09:09.642Z,0
2018-01-12T01:10:19.623Z,0
2018-01-12T01:11:29.600Z,0
2018-01-12T01:12:39.319Z,0
2018-01-12T01:13:49.085Z,0
2018-01-12T01:14:59.060Z,0
2018-01-12T01:16:09.047Z,0
2018-01-12T01:17:18.760Z,0
2018-01-12T01:18:28.743Z,0
2018-01-12T01:19:38.723Z,0
2018-01-12T01:20:48.706Z,0
2018-01-12T01:21:58.684Z,0
2018-01-12T01:23:08.399Z,0
2018-01-12T01:24:18.441Z,0
2018-01-12T01:25:28.427Z,0
2018-01-12T01:26:38.410Z,0
2018-01-12T01:27:48.392Z,0
2018-01-12T01:28:58.412Z,0
2018-01-12T01:30:08.134Z,0
2018-01-12T01:31:18.121Z,0
2018-01-12T01:32:27.836Z,0
2018-01-12T01:33:37.023Z,0
2018-01-12T01:34:47.003Z,0
2018-01-12T01:35:57.080Z,0
2018-01-12T01:37:07.060Z,0
2018-01-12T01:38:16.782Z,0
2018-01-12T01:39:26.495Z,0
2018-01-12T01:40:36.210Z,0
2018-01-12T01:41:46.193Z,0
2018-01-12T01:42:56.177Z,0
2018-01-12T01:44:06.159Z,0
2018-01-12T01:45:16.139Z,0
2018-01-12T01:46:26.119Z,0
2018-01-12T01:47:35.850Z,0
2018-01-12T01:48:45.841Z,0
2018-01-12T01:49:55.826Z,0
2018-01-12T01:51:05.810Z,0
2018-01-12T01:52:15.526Z,0
2018-01-12T01:53:25.506Z,0
2018-01-12T01:54:35.230Z,0
2018-01-12T01:55:45.211Z,0
2018-01-12T01:56:55.187Z,0
2018-01-12T01:58:05.169Z,0
2018-01-12T01:59:14.634Z,0
2018-01-12T02:00:24.612Z,0
2018-01-12T02:01:34.601Z,0
2018-01-12T02:02:44.320Z,0
2018-01-12T02:03:54.376Z,0
2018-01-12T02:05:04.357Z,0
2018-01-12T02:06:14.336Z,0
2018-01-12T02:07:24.315Z,0
2018-01-12T02:08:34.035Z,0
2018-01-12T02:09:44.018Z,0
2018-01-12T02:10:54.092Z,0
2018-01-12T02:12:04.091Z,0
2018-01-12T02:13:14.071Z,0
2018-01-12T02:14:24.049Z,0
2018-01-12T02:15:34.028Z,0
2018-01-12T02:16:44.013Z,0
2018-01-12T02:17:53.999Z,0
2018-01-12T02:19:03.981Z,0
2018-01-12T02:20:13.970Z,0
2018-01-12T02:21:23.687Z,0
2018-01-12T02:22:33.720Z,0
2018-01-12T02:23:43.701Z,0
2018-01-12T02:24:53.413Z,0
2018-01-12T02:26:03.394Z,0
2018-01-12T02:27:12.844Z,0
2018-01-12T02:28:22.291Z,0
2018-01-12T02:29:32.276Z,0
2018-01-12T02:30:42.262Z,0
2018-01-12T02:31:52.252Z,0
2018-01-12T02:33:02.235Z,0
2018-01-12T02:34:11.733Z,0
2018-01-12T02:35:21.714Z,0
2018-01-12T02:36:31.696Z,0
2018-01-12T02:37:41.681Z,0
2018-01-12T02:38:51.674Z,0
2018-01-12T02:40:01.678Z,0
2018-01-12T02:41:11.668Z,0
2018-01-12T02:42:21.405Z,0
2018-01-12T02:43:31.397Z,0
2018-01-12T02:44:41.163Z,0
2018-01-12T02:45:51.206Z,0
2018-01-12T02:47:01.188Z,0
2018-01-12T02:48:11.234Z,0
2018-01-12T02:49:21.223Z,0
2018-01-12T02:50:31.213Z,0
2018-01-12T02:51:41.199Z,0
2018-01-12T02:52:50.910Z,0
2018-01-12T02:54:00.910Z,0
2018-01-12T02:55:10.367Z,0
2018-01-12T02:56:20.094Z,0
2018-01-12T02:57:29.814Z,0
2018-01-12T02:58:39.525Z,0
2018-01-12T02:59:49.525Z,0
2018-01-12T03:00:59.510Z,0
2018-01-12T03:02:09.500Z,0
2018-01-12T03:03:19.483Z,0
2018-01-12T03:04:29.209Z,0
2018-01-12T03:05:39.192Z,0
2018-01-12T03:06:49.171Z,0
2018-01-12T03:07:59.152Z,0
2018-01-12T03:09:09.184Z,0
2018-01-12T03:10:19.161Z,0
2018-01-12T03:11:29.142Z,0
2018-01-12T03:12:39.116Z,0
2018-01-12T03:13:48.826Z,0
2018-01-12T03:14:58.592Z,0
2018-01-12T03:16:08.575Z,0
2018-01-12T03:17:18.559Z,0
2018-01-12T03:18:28.543Z,0
2018-01-12T03:19:38.524Z,0
2018-01-12T03:20:48.503Z,0
2018-01-12T03:21:58.483Z,0
2018-01-12T03:23:08.462Z,0
2018-01-12T03:24:18.455Z,0
2018-01-12T03:25:28.435Z,0
2018-01-12T03:26:38.616Z,0
2018-01-12T03:27:48.598Z,0
2018-01-12T03:28:58.350Z,0
2018-01-12T03:30:07.801Z,0
2018-01-12T03:31:17.807Z,0
2018-01-12T03:32:27.522Z,0
2018-01-12T03:33:37.235Z,0
2018-01-12T03:34:47.219Z,0
2018-01-12T03:35:57.200Z,0
2018-01-12T03:37:07.184Z,0
2018-01-12T03:38:17.166Z,0
2018-01-12T03:39:27.206Z,0
2018-01-12T03:40:36.389Z,0
2018-01-12T03:41:46.372Z,0
2018-01-12T03:42:56.348Z,0
2018-01-12T03:44:06.354Z,0
2018-01-12T03:45:16.333Z,0
2018-01-12T03:46:26.316Z,0
2018-01-12T03:47:36.300Z,0
2018-01-12T03:48:46.015Z,0
2018-01-12T03:49:55.992Z,0
2018-01-12T03:51:05.978Z,0
2018-01-12T03:52:15.699Z,0
2018-01-12T03:53:25.167Z,0
2018-01-12T03:54:34.882Z,0
2018-01-12T03:55:44.595Z,0
2018-01-12T03:56:54.580Z,0
2018-01-12T03:58:04.565Z,0
2018-01-12T03:59:14.277Z,0
2018-01-12T04:03:39.210Z,0
2018-01-12T04:04:49.193Z,0
2018-01-12T04:05:59.169Z,0
2018-01-12T04:07:09.153Z,0
2018-01-12T04:08:18.866Z,0
2018-01-12T04:09:28.943Z,0
2018-01-12T04:10:38.658Z,0
2018-01-12T04:11:48.635Z,0
2018-01-12T04:12:58.614Z,0
2018-01-12T04:14:08.594Z,0
2018-01-12T04:15:18.573Z,0
2018-01-12T04:16:28.286Z,0
2018-01-12T04:17:37.734Z,0
2018-01-12T04:18:47.720Z,0
2018-01-12T04:19:57.754Z,0
2018-01-12T04:21:07.788Z,0
2018-01-12T04:22:17.767Z,0
2018-01-12T04:23:27.750Z,0
2018-01-12T04:24:37.730Z,0
2018-01-12T04:25:47.710Z,0
2018-01-12T04:26:57.421Z,0
2018-01-12T04:28:07.413Z,0
2018-01-12T04:29:17.394Z,0
2018-01-12T04:30:27.385Z,0
2018-01-12T04:31:37.096Z,0
2018-01-12T04:32:46.805Z,0
2018-01-12T04:33:56.781Z,0
2018-01-12T04:35:06.777Z,0
2018-01-12T04:36:16.493Z,0
2018-01-12T04:37:26.471Z,0
2018-01-12T04:38:36.186Z,0
2018-01-12T04:39:46.164Z,0
2018-01-12T04:40:55.874Z,0
2018-01-12T04:42:05.590Z,0
2018-01-12T04:43:15.572Z,0
2018-01-12T04:44:25.551Z,0
2018-01-12T04:45:35.267Z,0
2018-01-12T04:46:45.245Z,0
2018-01-12T04:47:55.221Z,0
2018-01-12T04:49:05.199Z,0
2018-01-12T04:50:15.181Z,0
2018-01-12T04:51:25.163Z,0
2018-01-12T04:52:35.151Z,0
2018-01-12T04:53:45.128Z,0
2018-01-12T04:54:55.106Z,0
2018-01-12T04:56:04.925Z,0
2018-01-12T04:57:14.927Z,0
2018-01-12T04:58:24.658Z,0
2018-01-12T04:59:34.392Z,0
2018-01-12T05:00:44.401Z,0
2018-01-12T05:01:54.400Z,0
2018-01-12T05:03:04.132Z,0
2018-01-12T05:04:14.133Z,0
2018-01-12T05:05:24.134Z,0
2018-01-12T05:06:34.135Z,0
2018-01-12T05:07:44.182Z,0
2018-01-12T05:08:53.649Z,0
2018-01-12T05:10:03.650Z,0
2018-01-12T05:11:13.389Z,0
2018-01-12T05:12:23.171Z,0
2018-01-12T05:13:33.171Z,0
2018-01-12T05:14:42.636Z,0
2018-01-12T05:15:52.369Z,0
2018-01-12T05:17:02.102Z,0
2018-01-12T05:18:12.110Z,0
2018-01-12T05:19:22.110Z,0
2018-01-12T05:20:32.111Z,0
2018-01-12T05:21:42.109Z,0
2018-01-12T05:22:52.157Z,0
2018-01-12T05:24:01.879Z,0
2018-01-12T05:25:11.865Z,0
2018-01-12T05:26:21.579Z,0
2018-01-12T05:27:31.555Z,0
2018-01-12T05:28:41.271Z,0
2018-01-12T05:29:51.245Z,0
2018-01-12T05:31:01.221Z,0
2018-01-12T05:32:11.211Z,0
2018-01-12T05:33:20.929Z,0
2018-01-12T05:34:30.907Z,0
2018-01-12T05:35:40.360Z,0
2018-01-12T05:36:50.337Z,0
2018-01-12T05:38:00.313Z,0
2018-01-12T05:39:10.311Z,0
2018-01-12T05:40:20.288Z,0
2018-01-12T05:41:30.266Z,0
2018-01-12T05:42:39.715Z,0
2018-01-12T05:43:49.438Z,0
2018-01-12T05:44:59.421Z,0
2018-01-12T05:46:09.410Z,0
2018-01-12T05:47:19.127Z,0
2018-01-12T05:48:29.107Z,0
2018-01-12T05:49:39.089Z,0
2018-01-12T05:50:49.067Z,0
2018-01-12T05:51:59.075Z,0
2018-01-12T05:53:09.062Z,0
2018-01-12T05:54:18.837Z,0
2018-01-12T05:55:28.814Z,0
2018-01-12T05:56:38.534Z,0
2018-01-12T05:57:48.516Z,0
2018-01-12T05:58:58.502Z,0
2018-01-12T06:00:07.957Z,0
2018-01-12T06:01:17.937Z,0
2018-01-12T06:02:27.919Z,0
2018-01-12T06:03:37.896Z,0
2018-01-12T06:04:47.343Z,0
2018-01-12T06:05:57.377Z,0
2018-01-12T06:07:07.094Z,0
2018-01-12T06:08:16.810Z,0
2018-01-12T06:09:26.797Z,0
2018-01-12T06:10:36.792Z,0
2018-01-12T06:11:46.771Z,0
2018-01-12T06:12:56.763Z,0
2018-01-12T06:14:06.743Z,0
2018-01-12T06:15:16.735Z,0
2018-01-12T06:16:26.721Z,0
2018-01-12T06:17:36.439Z,0
2018-01-12T06:18:46.417Z,0
2018-01-12T06:19:56.136Z,0
2018-01-12T06:21:06.122Z,0
2018-01-12T06:22:15.846Z,0
2018-01-12T06:23:25.836Z,0
2018-01-12T06:24:35.819Z,0
2018-01-12T06:25:45.802Z,0
2018-01-12T06:26:55.788Z,0
2018-01-12T06:28:05.819Z,0
2018-01-12T06:29:15.541Z,0
2018-01-12T06:30:25.528Z,0
2018-01-12T06:31:35.513Z,0
2018-01-12T06:32:45.505Z,0
2018-01-12T06:33:55.501Z,0
2018-01-12T06:35:05.216Z,0
2018-01-12T06:36:14.946Z,0
2018-01-12T06:37:24.395Z,0
2018-01-12T06:38:34.383Z,0
2018-01-12T06:39:44.155Z,0
2018-01-12T06:40:54.234Z,0
2018-01-12T06:42:04.220Z,0
2018-01-12T06:43:14.196Z,0
2018-01-12T06:44:23.916Z,0
2018-01-12T06:45:33.639Z,0
2018-01-12T06:46:43.618Z,0
2018-01-12T06:47:53.599Z,0
2018-01-12T06:49:03.315Z,0
2018-01-12T06:50:13.302Z,0
2018-01-12T06:51:23.025Z,0
2018-01-12T06:52:33.014Z,0
2018-01-12T06:53:43.051Z,0
2018-01-12T06:54:53.038Z,0
2018-01-12T06:56:03.017Z,0
2018-01-12T06:57:12.998Z,0
2018-01-12T06:58:22.990Z,0
2018-01-12T06:59:32.504Z,0
2018-01-12T07:00:42.488Z,0
2018-01-12T07:01:52.469Z,0
2018-01-12T07:03:02.460Z,0
2018-01-12T07:04:12.445Z,0
2018-01-12T07:05:22.428Z,0
2018-01-12T07:06:32.438Z,0
2018-01-12T07:07:42.417Z,0
2018-01-12T07:08:52.129Z,0
2018-01-12T07:10:02.214Z,0
2018-01-12T07:11:12.197Z,0
2018-01-12T07:12:21.915Z,0
2018-01-12T07:13:31.894Z,0
2018-01-12T07:14:41.612Z,0
2018-01-12T07:15:51.329Z,0
2018-01-12T07:17:01.048Z,0
2018-01-12T07:18:11.041Z,0
2018-01-12T07:19:21.028Z,0
2018-01-12T07:20:31.008Z,0
2018-01-12T07:21:40.739Z,0
2018-01-12T07:22:50.730Z,0
2018-01-12T07:24:00.453Z,0
2018-01-12T07:25:10.437Z,0
2018-01-12T07:26:20.168Z,0
2018-01-12T07:27:29.666Z,0
2018-01-12T07:28:38.867Z,0
2018-01-12T07:29:48.849Z,0
2018-01-12T07:30:58.825Z,0
2018-01-12T07:32:08.545Z,0
2018-01-12T07:33:18.523Z,0
2018-01-12T07:34:27.975Z,0
2018-01-12T07:35:37.424Z,0
2018-01-12T07:36:47.140Z,0
2018-01-12T07:37:57.127Z,0
2018-01-12T07:39:07.138Z,0
2018-01-12T07:40:17.115Z,0
2018-01-12T07:41:27.097Z,0
2018-01-12T07:42:37.086Z,0
2018-01-12T07:43:46.805Z,0
2018-01-12T07:44:56.576Z,0
2018-01-12T07:46:06.293Z,0
2018-01-12T07:47:16.280Z,0
2018-01-12T07:48:26.266Z,0
2018-01-12T07:49:35.987Z,0
2018-01-12T07:50:45.966Z,0
2018-01-12T07:51:55.943Z,0
2018-01-12T07:53:05.655Z,0
2018-01-12T07:54:15.110Z,0
2018-01-12T07:55:25.093Z,0
2018-01-12T07:56:35.078Z,0
2018-01-12T07:57:45.063Z,5
2018-01-12T07:58:55.043Z,5
2018-01-12T08:00:05.094Z,5
2018-01-12T08:01:14.808Z,5
2018-01-12T08:02:24.797Z,5
2018-01-12T08:03:34.515Z,5
2018-01-12T08:04:43.960Z,5
2018-01-12T08:05:53.669Z,5
2018-01-12T08:07:03.647Z,5
2018-01-12T08:08:12.878Z,10
2018-01-12T08:09:22.853Z,10
2018-01-12T08:10:32.568Z,10
2018-01-12T08:11:42.277Z,10
2018-01-12T08:12:52.252Z,10
2018-01-12T08:14:02.228Z,10
2018-01-12T08:15:12.201Z,10
2018-01-12T08:16:21.917Z,10
2018-01-12T08:17:31.898Z,10
2018-01-12T08:18:41.615Z,10
2018-01-12T08:19:51.594Z,10
2018-01-12T08:21:01.038Z,15
2018-01-12T08:22:11.011Z,15
2018-01-12T08:23:20.717Z,15
2018-01-12T08:24:30.424Z,15
2018-01-12T08:25:39.876Z,20
2018-01-12T08:26:49.858Z,20
2018-01-12T08:27:59.830Z,20
2018-01-12T08:29:09.805Z,20
2018-01-12T08:30:19.791Z,25
2018-01-12T08:31:29.821Z,25
2018-01-12T08:32:39.265Z,25
2018-01-12T08:33:49.238Z,25
2018-01-12T08:34:59.211Z,25
2018-01-12T08:36:09.184Z,25
2018-01-12T08:37:19.158Z,25
2018-01-12T08:38:29.129Z,25
2018-01-12T08:39:39.103Z,30
2018-01-12T08:40:49.074Z,30
2018-01-12T08:41:58.781Z,30
2018-01-12T08:43:08.542Z,30
2018-01-12T08:44:18.257Z,35
2018-01-12T08:45:28.231Z,35
2018-01-12T08:46:38.210Z,35
2018-01-12T08:47:48.188Z,35
2018-01-12T08:48:57.686Z,40
2018-01-12T08:50:07.398Z,40
2018-01-12T08:51:16.846Z,45
2018-01-12T08:52:26.297Z,45
2018-01-12T08:53:36.009Z,45
2018-01-12T08:54:45.715Z,50
2018-01-12T08:55:55.692Z,50
2018-01-12T08:57:05.668Z,50
2018-01-12T08:58:14.847Z,55
2018-01-12T08:59:24.606Z,55
2018-01-12T09:00:34.592Z,55
2018-01-12T09:01:44.307Z,55
2018-01-12T09:02:54.285Z,55
2018-01-12T09:04:04.265Z,60
2018-01-12T09:05:13.711Z,60
2018-01-12T09:06:23.424Z,65
2018-01-12T09:07:33.396Z,65
2018-01-12T09:08:43.109Z,65
2018-01-12T09:09:53.090Z,65
2018-01-12T09:11:03.275Z,65
2018-01-12T09:12:12.728Z,65
2018-01-12T09:13:22.696Z,65
2018-01-12T09:14:32.169Z,65
2018-01-12T09:15:41.608Z,65
2018-01-12T09:16:51.334Z,65
2018-01-12T09:18:01.104Z,70
2018-01-12T09:19:11.090Z,70
2018-01-12T09:20:20.805Z,70
2018-01-12T09:21:30.533Z,70
2018-01-12T09:22:39.981Z,70
2018-01-12T09:23:51.800Z,70
2018-01-12T09:25:01.873Z,70
2018-01-12T09:26:11.857Z,70
2018-01-12T09:27:21.569Z,70
2018-01-12T09:28:31.552Z,70
2018-01-12T09:29:41.266Z,75
2018-01-12T09:30:51.240Z,75
2018-01-12T09:32:00.946Z,75
2018-01-12T09:33:10.923Z,80
2018-01-12T09:34:20.900Z,80
2018-01-12T09:35:30.881Z,85
2018-01-12T09:36:40.325Z,85
2018-01-12T09:37:50.298Z,85
2018-01-12T09:39:00.267Z,85
2018-01-12T09:40:09.714Z,85
2018-01-12T09:41:19.160Z,85
2018-01-12T09:42:28.869Z,85
2018-01-12T09:43:38.312Z,85
2018-01-12T09:44:48.023Z,85
2018-01-12T09:45:58.001Z,85
2018-01-12T09:47:07.975Z,85
2018-01-12T09:48:17.692Z,85
2018-01-12T09:49:27.400Z,85
2018-01-12T09:50:37.143Z,80
2018-01-12T09:51:47.172Z,80
2018-01-12T09:52:57.196Z,80
2018-01-12T09:54:06.921Z,80
2018-01-12T09:55:16.640Z,80
2018-01-12T09:56:26.617Z,80
2018-01-12T09:57:35.532Z,80
2018-01-12T09:58:45.242Z,80
2018-01-12T09:59:55.221Z,85
2018-01-12T10:01:05.249Z,85
2018-01-12T10:02:14.965Z,90
2018-01-12T10:03:24.674Z,90
2018-01-12T10:04:34.123Z,95
2018-01-12T10:05:43.566Z,95
2018-01-12T10:06:53.007Z,90
2018-01-12T10:08:02.454Z,95
2018-01-12T10:09:12.166Z,95
2018-01-12T10:10:21.875Z,95
2018-01-12T10:11:31.580Z,95
2018-01-12T10:12:41.030Z,95
2018-01-12T10:13:50.756Z,100
2018-01-12T10:15:00.466Z,95
2018-01-12T10:16:10.225Z,95
2018-01-12T10:17:20.194Z,95
2018-01-12T10:18:29.924Z,95
2018-01-12T10:19:39.369Z,95
2018-01-12T10:20:49.337Z,95
2018-01-12T10:21:58.782Z,95
2018-01-12T10:23:08.757Z,100
2018-01-12T10:24:18.728Z,100
2018-01-12T10:25:28.694Z,105
2018-01-12T10:26:38.141Z,110
2018-01-12T10:27:47.945Z,115
2018-01-12T10:28:57.915Z,120
2018-01-12T10:30:07.896Z,125
2018-01-12T10:31:17.339Z,130
2018-01-12T10:32:27.047Z,130
2018-01-12T10:33:37.120Z,130
2018-01-12T10:34:46.832Z,125
2018-01-12T10:35:56.547Z,125
2018-01-12T10:37:06.522Z,125
2018-01-12T10:38:16.497Z,125
2018-01-12T10:39:26.210Z,125
2018-01-12T10:40:35.922Z,125
2018-01-12T10:41:45.630Z,125
2018-01-12T10:42:55.337Z,130
2018-01-12T10:44:05.047Z,130
2018-01-12T10:45:14.759Z,130
2018-01-12T10:46:24.540Z,130
2018-01-12T10:47:34.252Z,125
2018-01-12T10:48:44.227Z,120
2018-01-12T10:49:54.196Z,120
2018-01-12T10:51:04.169Z,115
2018-01-12T10:52:13.353Z,115
2018-01-12T10:53:23.326Z,115
2018-01-12T10:54:32.772Z,120
2018-01-12T10:55:42.753Z,120
2018-01-12T10:56:52.825Z,120
2018-01-12T10:58:02.840Z,120
2018-01-12T10:59:12.508Z,115
2018-01-12T11:00:22.167Z,115
2018-01-12T11:01:31.616Z,110
2018-01-12T11:02:41.338Z,110
2018-01-12T11:03:51.307Z,110
2018-01-12T11:05:01.320Z,110
2018-01-12T11:06:11.029Z,110
2018-01-12T11:07:20.743Z,110
2018-01-12T11:08:30.456Z,110
2018-01-12T11:09:39.634Z,110
2018-01-12T11:10:49.615Z,110
2018-01-12T11:11:59.588Z,110
2018-01-12T11:13:09.036Z,110
2018-01-12T11:14:18.487Z,110
2018-01-12T11:15:28.463Z,110
2018-01-12T11:16:38.435Z,115
2018-01-12T11:17:48.409Z,120
2018-01-12T11:18:58.116Z,115
2018-01-12T11:20:07.563Z,115
2018-01-12T11:21:17.332Z,115
2018-01-12T11:22:26.838Z,110
2018-01-12T11:23:36.018Z,115
2018-01-12T11:24:45.997Z,110
2018-01-12T11:25:56.020Z,110
2018-01-12T11:27:05.734Z,110
2018-01-12T11:28:15.706Z,110
2018-01-12T11:29:25.686Z,110
2018-01-12T11:30:35.660Z,110
2018-01-12T11:31:45.641Z,110
2018-01-12T11:32:55.355Z,110
2018-01-12T11:34:05.077Z,110
2018-01-12T11:35:14.793Z,115
2018-01-12T11:36:24.769Z,115
2018-01-12T11:37:34.527Z,110
2018-01-12T11:38:44.240Z,110
2018-01-12T11:39:53.695Z,110
2018-01-12T11:41:03.671Z,110
2018-01-12T11:42:13.378Z,110
2018-01-12T11:43:23.458Z,110
2018-01-12T11:44:33.433Z,115
2018-01-12T11:45:42.879Z,110
2018-01-12T11:46:52.324Z,110
2018-01-12T11:48:02.039Z,110
2018-01-12T11:49:12.066Z,110
2018-01-12T11:50:21.512Z,110
2018-01-12T11:51:31.485Z,110
2018-01-12T11:52:41.194Z,110
2018-01-12T11:53:50.904Z,115
2018-01-12T11:55:00.874Z,115
2018-01-12T11:56:10.058Z,115
2018-01-12T11:57:19.766Z,115
2018-01-12T11:58:29.797Z,115
2018-01-12T11:59:39.776Z,115
2018-01-12T12:00:49.485Z,115
2018-01-12T12:01:59.199Z,115
2018-01-12T12:03:09.177Z,115
2018-01-12T12:04:19.151Z,115
2018-01-12T12:05:29.126Z,115
2018-01-12T12:06:38.836Z,110
2018-01-12T12:07:48.624Z,110
2018-01-12T12:08:58.341Z,110
2018-01-12T12:10:07.794Z,110
2018-01-12T12:11:17.501Z,110
2018-01-12T12:12:27.472Z,110
2018-01-12T12:13:37.195Z,110
2018-01-12T12:14:46.907Z,110
2018-01-12T12:15:56.885Z,110
2018-01-12T12:17:06.337Z,105
2018-01-12T12:18:16.098Z,105
2018-01-12T12:19:25.809Z,105
2018-01-12T12:20:35.255Z,105
2018-01-12T12:21:44.972Z,105
2018-01-12T12:22:54.417Z,105
2018-01-12T12:24:04.125Z,100
2018-01-12T12:25:13.835Z,100
2018-01-12T12:26:23.807Z,100
2018-01-12T12:27:33.522Z,100
2018-01-12T12:28:43.281Z,100
2018-01-12T12:29:53.259Z,100
2018-01-12T12:31:03.232Z,100
2018-01-12T12:32:13.211Z,95
2018-01-12T12:33:22.653Z,95
2018-01-12T12:34:32.359Z,95
2018-01-12T12:35:42.341Z,95
2018-01-12T12:36:51.788Z,90
2018-01-12T12:38:01.516Z,90
2018-01-12T12:39:11.489Z,90
2018-01-12T12:40:21.510Z,85
2018-01-12T12:41:31.482Z,85
2018-01-12T12:42:41.193Z,85
2018-01-12T12:43:50.902Z,80
2018-01-12T12:45:00.877Z,80
2018-01-12T12:46:10.594Z,80
2018-01-12T12:47:20.621Z,80
2018-01-12T12:48:30.329Z,80
2018-01-12T12:49:40.311Z,80
2018-01-12T12:50:50.285Z,75
2018-01-12T12:51:59.994Z,75
2018-01-12T12:53:09.701Z,75
2018-01-12T12:54:18.881Z,75
2018-01-12T12:55:28.592Z,75
2018-01-12T12:56:38.354Z,75
2018-01-12T12:57:48.325Z,75
2018-01-12T12:58:58.041Z,75
2018-01-12T13:00:07.756Z,70
2018-01-12T13:01:17.463Z,70
2018-01-12T13:02:27.433Z,70
2018-01-12T13:03:37.142Z,70
2018-01-12T13:04:46.851Z,70
2018-01-12T13:05:56.826Z,70
2018-01-12T13:07:06.802Z,70
2018-01-12T13:08:16.513Z,70
2018-01-12T13:09:26.223Z,65
2018-01-12T13:10:36.032Z,65
2018-01-12T13:11:45.479Z,65
2018-01-12T13:12:55.452Z,65
2018-01-12T13:14:04.898Z,65
2018-01-12T13:15:14.081Z,65
2018-01-12T13:16:24.054Z,60
2018-01-12T13:17:33.763Z,60
2018-01-12T13:18:43.739Z,60
2018-01-12T13:19:53.447Z,60
2018-01-12T13:21:03.421Z,60
2018-01-12T13:22:12.602Z,60
2018-01-12T13:23:22.579Z,60
2018-01-12T13:24:32.286Z,60
2018-01-12T13:25:41.997Z,55
2018-01-12T13:26:51.971Z,55
2018-01-12T13:28:01.944Z,55
2018-01-12T13:29:11.934Z,55
2018-01-12T13:30:21.657Z,55
2018-01-12T13:31:31.635Z,55
2018-01-12T13:32:41.081Z,50
2018-01-12T13:33:51.188Z,50
2018-01-12T13:35:01.175Z,50
2018-01-12T13:36:11.157Z,50
2018-01-12T13:37:21.143Z,50
2018-01-12T13:38:31.228Z,45
2018-01-12T13:39:41.214Z,45
2018-01-12T13:40:50.659Z,45
2018-01-12T13:42:00.657Z,45
2018-01-12T13:43:10.367Z,45
2018-01-12T13:44:19.810Z,45
2018-01-12T13:45:29.883Z,40
2018-01-12T13:46:39.862Z,40
2018-01-12T13:47:49.840Z,40
2018-01-12T13:48:59.822Z,40
2018-01-12T13:50:09.534Z,35
2018-01-12T13:51:19.520Z,35
2018-01-12T13:52:29.234Z,35
2018-01-12T13:53:39.211Z,35
2018-01-12T13:54:48.921Z,35
2018-01-12T13:55:58.631Z,30
2018-01-12T13:57:08.392Z,30
2018-01-12T13:58:17.836Z,30
2018-01-12T13:59:27.814Z,30
2018-01-12T14:00:37.531Z,30
2018-01-12T14:01:47.241Z,30
2018-01-12T14:02:56.789Z,30
2018-01-12T14:04:06.556Z,25
2018-01-12T14:05:16.531Z,25
2018-01-12T14:06:26.245Z,25
2018-01-12T14:07:36.303Z,25
2018-01-12T14:08:46.082Z,25
2018-01-12T14:09:56.062Z,20
2018-01-12T14:11:06.036Z,20
2018-01-12T14:12:15.749Z,20
2018-01-12T14:13:25.537Z,20
2018-01-12T14:14:35.088Z,20
2018-01-12T14:15:45.066Z,20
2018-01-12T14:16:55.047Z,15
2018-01-12T14:18:05.030Z,15
2018-01-12T14:19:15.005Z,15
2018-01-12T14:20:24.994Z,15
2018-01-12T14:21:34.718Z,15
2018-01-12T14:22:44.690Z,15
2018-01-12T14:23:54.665Z,15
2018-01-12T14:25:04.664Z,10
2018-01-12T14:26:14.643Z,10
2018-01-12T14:27:24.618Z,10
2018-01-12T14:28:34.064Z,10
2018-01-12T14:29:44.040Z,10
2018-01-12T14:30:54.109Z,10
2018-01-12T14:32:03.901Z,10
2018-01-12T14:33:13.883Z,10
2018-01-12T14:34:23.608Z,10
2018-01-12T14:35:33.578Z,5
2018-01-12T14:36:43.289Z,5
2018-01-12T14:37:53.007Z,5
2018-01-12T14:39:02.776Z,5
2018-01-12T14:40:12.752Z,5
2018-01-12T14:41:22.462Z,5
2018-01-12T14:42:32.186Z,5
2018-01-12T14:43:41.686Z,5
2018-01-12T14:44:51.132Z,5
2018-01-12T14:46:00.844Z,5
2018-01-12T14:47:10.896Z,5
2018-01-12T14:48:20.877Z,0
2018-01-12T14:49:30.378Z,0
2018-01-12T14:50:40.089Z,0
2018-01-12T14:51:49.805Z,0
2018-01-12T14:52:59.576Z,0
2018-01-12T14:54:09.019Z,0
2018-01-12T14:55:18.725Z,0
2018-01-12T14:56:28.700Z,0
2018-01-12T14:57:38.678Z,0
2018-01-12T14:58:48.654Z,0
2018-01-12T14:59:58.628Z,0
2018-01-12T15:01:08.608Z,0
2018-01-12T15:02:18.326Z,0
2018-01-12T15:03:28.301Z,0
2018-01-12T15:04:38.057Z,0
2018-01-12T15:05:47.771Z,0
2018-01-12T15:06:57.744Z,0
2018-01-12T15:08:07.723Z,0
2018-01-12T15:09:17.431Z,0
2018-01-12T15:10:27.144Z,0
2018-01-12T15:11:36.595Z,0
2018-01-12T15:12:46.352Z,0
2018-01-12T15:13:56.062Z,0
2018-01-12T15:15:05.774Z,0
2018-01-12T15:16:15.748Z,0
2018-01-12T15:17:25.460Z,0
2018-01-12T15:18:35.166Z,0
2018-01-12T15:19:45.141Z,0
2018-01-12T15:20:54.848Z,0
2018-01-12T15:22:04.825Z,0
2018-01-12T15:23:14.533Z,0
2018-01-12T15:24:24.505Z,0
2018-01-12T15:25:33.956Z,0
2018-01-12T15:26:43.415Z,0
2018-01-12T15:27:53.112Z,0
2018-01-12T15:29:03.088Z,0
2018-01-12T15:30:12.548Z,0
2018-01-12T15:31:22.517Z,0
2018-01-12T15:32:32.489Z,0
2018-01-12T15:33:41.404Z,0
2018-01-12T15:34:51.118Z,0
2018-01-12T15:36:01.097Z,0
2018-01-12T15:37:10.541Z,0
2018-01-12T15:38:20.251Z,0
2018-01-12T15:39:29.698Z,0
2018-01-12T15:40:39.407Z,0
2018-01-12T15:41:49.378Z,0
2018-01-12T15:42:59.362Z,0
2018-01-12T15:44:09.343Z,0
2018-01-12T15:45:19.315Z,0
2018-01-12T15:46:28.759Z,0
2018-01-12T15:47:38.466Z,0
2018-01-12T15:48:48.179Z,0
2018-01-12T15:49:58.157Z,0
2018-01-12T15:51:07.607Z,0
2018-01-12T15:52:17.323Z,0
2018-01-12T15:53:27.033Z,0
2018-01-12T15:54:37.052Z,0
2018-01-12T15:55:47.091Z,0
2018-01-12T15:56:57.065Z,0
2018-01-12T15:58:06.770Z,0
2018-01-12T15:59:16.750Z,0
2018-01-12T16:00:26.722Z,0
2018-01-12T16:01:35.904Z,0
2018-01-12T16:02:45.881Z,0
2018-01-12T16:03:55.858Z,0
2018-01-12T16:05:05.575Z,0
2018-01-12T16:06:15.015Z,0
2018-01-12T16:07:24.991Z,0
2018-01-12T16:08:34.438Z,0
2018-01-12T16:09:44.253Z,0
2018-01-12T16:10:54.283Z,0
2018-01-12T16:12:04.263Z,0
2018-01-12T16:13:13.976Z,0
2018-01-12T16:14:23.686Z,0
2018-01-12T16:15:33.682Z,0
2018-01-12T16:16:43.391Z,0
2018-01-12T16:17:53.100Z,0
2018-01-12T16:19:03.072Z,0
2018-01-12T16:20:12.519Z,0
2018-01-12T16:21:22.488Z,0
2018-01-12T16:22:32.459Z,0
2018-01-12T16:23:42.432Z,0
2018-01-12T16:24:52.146Z,0
2018-01-12T16:26:01.914Z,0
2018-01-12T16:27:11.620Z,0
2018-01-12T16:28:21.632Z,0
2018-01-12T16:29:31.346Z,0
2018-01-12T16:30:41.324Z,0
2018-01-12T16:31:51.294Z,0
2018-01-12T16:33:01.058Z,0
2018-01-12T16:34:11.642Z,0
2018-01-12T16:35:21.614Z,0
2018-01-12T16:36:31.586Z,0
2018-01-12T16:37:41.295Z,0
2018-01-12T16:38:50.739Z,0
2018-01-12T16:40:00.715Z,0
2018-01-12T16:41:10.160Z,0
2018-01-12T16:42:19.870Z,0
2018-01-12T16:43:29.842Z,0
2018-01-12T16:44:39.814Z,0
2018-01-12T16:45:49.792Z,0
2018-01-12T16:46:59.766Z,0
2018-01-12T16:48:09.742Z,0
2018-01-12T16:49:19.719Z,0
2018-01-12T16:50:29.167Z,0
2018-01-12T16:51:39.239Z,0
2018-01-12T16:52:49.214Z,0
2018-01-12T16:53:58.924Z,0
2018-01-12T16:55:08.373Z,0
2018-01-12T16:56:18.346Z,0